Gulf Park Estates, Mississippi
Current Conditions -  °F | °C
As of 8:58 AM on Friday 31 Oct 2014 (Local Time) from KBIX Reporting Station
Clear Clear  
Wind Chill: 59°   Ceiling: Unl
Heat Index: 59°   Visibility: 10mi
Dew Point: 46°   Wind: 5mph
Humidity: 63%   Direction: 340°NNW
Pressure: 30.04"   Gusts: NA
Location:  30.418°N, 88.7558°W
Report Text: KBIX 311358Z AUTO 34004KT 10SM CLR 15/08 A3004 RMK AO2 SLP176 T01490079
Loading
Personal Weather Stations






























Interactive Weather Map
Tropical Storm Tracking
New forecast layout! Learn more

10-Day Weather Forecast

Advertisements
Track Severe Weather on mobile